Time;durP1;ratioP1;P1;durP2;ratioP2;P2;SDS_P1;SDS_P2;PMS_P1;PMS_P2;Temp;Humidity;BMP_temperature;BMP_pressure;BME280_temperature;BME280_humidity;BME280_pressure;Samples;Min_cycle;Max_cycle;Signal;HPM_P1;HPM_P2
2022/04/13 00:00:56;;;;;;;9.90;5.50;;;;;;;-0.71;70.18;101211.10;88119;1276;86619;-60
2022/04/13 00:03:05;;;;;;;13.00;5.70;;;;;;;-0.70;70.22;101210.35;88080;1276;94356;-61
2022/04/13 00:05:15;;;;;;;12.20;5.80;;;;;;;-0.78;70.20;101209.45;88073;1276;79460;-60
2022/04/13 00:07:24;;;;;;;14.60;6.40;;;;;;;-0.83;70.38;101208.70;88094;1276;81887;-59
2022/04/13 00:09:32;;;;;;;13.80;7.00;;;;;;;-0.87;70.42;101212.30;88091;1276;98774;-67
2022/04/13 00:11:41;;;;;;;13.20;6.60;;;;;;;-0.86;70.76;101207.66;88088;1274;88898;-67
2022/04/13 00:13:50;;;;;;;14.40;6.60;;;;;;;-0.84;70.67;101215.53;88109;1276;94248;-65
2022/04/13 00:16:02;;;;;;;17.20;7.20;;;;;;;-0.86;70.82;101215.42;88086;1276;80005;-62
2022/04/13 00:18:14;;;;;;;11.80;6.70;;;;;;;-0.85;70.80;101219.64;88086;1276;82752;-60
2022/04/13 00:20:29;;;;;;;14.40;7.70;;;;;;;-0.84;70.65;101219.00;88120;1276;97902;-67
2022/04/13 00:22:38;;;;;;;13.90;7.10;;;;;;;-0.82;70.92;101216.95;88112;1276;86394;-66
2022/04/13 00:24:46;;;;;;;17.50;11.80;;;;;;;-0.78;71.04;101215.79;88077;1276;96024;-66
2022/04/13 00:26:57;;;;;;;18.00;10.10;;;;;;;-0.72;70.75;101216.85;88097;1276;79124;-66
2022/04/13 00:29:09;;;;;;;18.40;9.40;;;;;;;-0.74;71.13;101217.66;88106;1276;82606;-67
2022/04/13 00:31:18;;;;;;;18.90;9.50;;;;;;;-0.71;71.00;101222.41;88097;1276;98516;-62
2022/04/13 00:33:27;;;;;;;18.50;9.90;;;;;;;-0.69;71.09;101221.42;88172;1276;87527;-60
2022/04/13 00:35:39;;;;;;;18.70;9.90;;;;;;;-0.69;70.92;101217.36;88164;1276;94799;-66
2022/04/13 00:37:51;;;;;;;18.30;9.00;;;;;;;-0.68;70.87;101222.45;88094;1276;80801;-66
2022/04/13 00:40:00;;;;;;;19.60;8.50;;;;;;;-0.74;70.83;101216.10;88117;1276;82226;-60
2022/04/13 00:42:13;;;;;;;14.60;9.10;;;;;;;-0.78;71.05;101224.98;88099;1276;98607;-61
2022/04/13 00:44:26;;;;;;;14.50;8.80;;;;;;;-0.82;70.77;101227.23;88117;1276;87266;-62
2022/04/13 00:46:38;;;;;;;15.70;8.20;;;;;;;-0.86;70.73;101229.09;88101;1276;93977;-66
2022/04/13 00:48:47;;;;;;;12.20;5.60;;;;;;;-0.93;70.81;101225.45;88089;1276;78933;-67
2022/04/13 00:50:56;;;;;;;16.40;8.20;;;;;;;-1.03;71.21;101222.52;88104;1276;82006;-66
2022/04/13 00:53:09;;;;;;;14.40;7.70;;;;;;;-1.06;71.19;101222.94;88118;1276;98083;-66
2022/04/13 00:55:20;;;;;;;15.50;7.70;;;;;;;-1.10;71.35;101227.63;88095;1276;86730;-66
2022/04/13 00:57:31;;;;;;;13.70;7.60;;;;;;;-1.13;71.78;101223.71;88165;1276;94369;-66
2022/04/13 00:59:48;;;;;;;11.90;6.40;;;;;;;-1.15;71.79;101226.67;88054;1276;81054;-61
2022/04/13 01:01:59;;;;;;;16.70;7.60;;;;;;;-1.12;71.79;101223.63;88126;1276;80247;-62
2022/04/13 01:04:11;;;;;;;16.70;6.90;;;;;;;-1.10;71.76;101224.25;88077;1277;98459;-61
2022/04/13 01:06:24;;;;;;;11.40;6.10;;;;;;;-1.09;71.78;101228.77;88173;1274;89646;-60
2022/04/13 01:08:38;;;;;;;12.50;6.70;;;;;;;-1.09;72.14;101224.49;88112;1276;93938;-62
2022/04/13 01:10:49;;;;;;;;;;;;;;;-1.11;72.20;101226.05;88074;1276;80276;-60
2022/04/13 01:12:58;;;;;;;16.40;7.20;;;;;;;-1.08;72.31;101228.66;88106;1276;81873;-60
2022/04/13 01:15:12;;;;;;;12.20;6.20;;;;;;;-1.04;72.17;101229.16;88087;1276;98846;-65
2022/04/13 01:17:24;;;;;;;13.20;6.30;;;;;;;-1.05;72.30;101231.48;88117;1276;88540;-64
2022/04/13 01:19:33;;;;;;;12.50;6.60;;;;;;;-1.04;72.12;101228.81;88027;1276;94399;-60
2022/04/13 01:21:47;;;;;;;12.20;6.60;;;;;;;-1.05;72.28;101231.19;88134;1276;80770;-61
2022/04/13 01:23:57;;;;;;;;;;;;;;;-1.04;72.52;101231.98;88019;1279;83283;-61
2022/04/13 01:26:09;;;;;;;13.30;6.10;;;;;;;-1.01;72.34;101230.73;88050;1279;98180;-62
2022/04/13 01:28:21;;;;;;;13.20;6.60;;;;;;;-1.06;72.26;101229.11;88055;1278;88038;-60
2022/04/13 01:30:30;;;;;;;13.90;7.30;;;;;;;-1.07;72.44;101229.52;88016;1278;92004;-61
2022/04/13 01:32:43;;;;;;;13.60;6.70;;;;;;;-1.11;72.65;101226.97;88029;1279;77783;-61
2022/04/13 01:34:53;;;;;;;15.00;7.30;;;;;;;-1.13;72.77;101229.19;88028;1279;83107;-61
2022/04/13 01:37:03;;;;;;;12.90;6.50;;;;;;;-1.16;72.69;101231.31;88061;1279;99213;-61
2022/04/13 01:39:17;;;;;;;13.70;7.30;;;;;;;-1.19;72.73;101232.92;88027;1279;88516;-61
2022/04/13 01:41:26;;;;;;;15.10;7.50;;;;;;;-1.21;72.59;101232.86;88059;1277;91663;-61
2022/04/13 01:43:36;;;;;;;15.40;7.20;;;;;;;-1.25;72.84;101234.00;88088;1277;78457;-61
2022/04/13 01:45:51;;;;;;;12.70;7.30;;;;;;;-1.30;72.74;101233.56;88083;1275;81076;-62
2022/04/13 01:48:00;;;;;;;13.40;7.10;;;;;;;-1.33;72.91;101233.60;88104;1277;98775;-61
2022/04/13 01:50:13;;;;;;;14.00;7.60;;;;;;;-1.35;72.86;101240.45;88072;1277;86360;-66
2022/04/13 01:52:22;;;;;;;10.00;5.30;;;;;;;-1.34;72.99;101238.98;88061;1277;95379;-66
2022/04/13 01:54:31;;;;;;;13.90;7.50;;;;;;;-1.35;72.90;101240.10;88099;1277;80053;-61
2022/04/13 01:56:40;;;;;;;15.30;8.60;;;;;;;-1.34;73.09;101240.17;88079;1277;83067;-61
2022/04/13 01:58:49;;;;;;;11.10;7.00;;;;;;;-1.33;73.12;101241.58;88070;1277;97752;-61
2022/04/13 02:00:58;;;;;;;16.30;6.50;;;;;;;-1.32;73.02;101241.13;88092;1277;87339;-66
2022/04/13 02:03:10;;;;;;;12.10;6.50;;;;;;;-1.31;73.15;101243.34;88012;1278;95855;-66
2022/04/13 02:05:22;;;;;;;13.70;7.00;;;;;;;-1.34;73.45;101249.55;88094;1277;79344;-66
2022/04/13 02:07:33;;;;;;;11.90;6.00;;;;;;;-1.33;73.24;101249.48;88096;1277;81261;-65
2022/04/13 02:09:42;;;;;;;12.50;7.20;;;;;;;-1.31;73.16;101248.11;88099;1277;99111;-66
2022/04/13 02:11:57;;;;;;;14.40;6.90;;;;;;;-1.29;73.42;101247.67;88095;1277;89675;-66
2022/04/13 02:14:12;;;;;;;12.00;7.20;;;;;;;-1.31;73.35;101247.23;88071;1277;94607;-66
2022/04/13 02:16:21;;;;;;;13.50;6.60;;;;;;;-1.31;73.12;101252.77;88097;1277;79552;-65
2022/04/13 02:18:30;;;;;;;14.10;7.00;;;;;;;-1.31;73.36;101249.55;88060;1278;81050;-65
2022/04/13 02:20:39;;;;;;;11.60;6.60;;;;;;;-1.30;73.33;101243.85;88018;1278;97579;-60
2022/04/13 02:22:50;;;;;;;11.10;6.60;;;;;;;-1.27;73.55;101245.62;88081;1277;85876;-61
2022/04/13 02:25:02;;;;;;;11.80;7.00;;;;;;;-1.29;73.77;101245.89;88092;1277;94760;-66
2022/04/13 02:27:14;;;;;;;15.30;6.80;;;;;;;-1.29;73.72;101244.13;88068;1278;81874;-66
2022/04/13 02:29:24;;;;;;;14.20;7.00;;;;;;;-1.26;73.60;101252.09;88102;1278;83285;-64
2022/04/13 02:31:33;;;;;;;12.10;6.80;;;;;;;-1.26;73.51;101252.59;88059;1277;97758;-66
2022/04/13 02:33:43;;;;;;;13.90;6.90;;;;;;;-1.28;73.65;101259.10;88118;1277;86877;-66
2022/04/13 02:35:52;;;;;;;15.30;6.70;;;;;;;-1.31;73.66;101264.59;88062;1277;93438;-67
2022/04/13 02:38:00;;;;;;;11.50;6.40;;;;;;;-1.34;73.96;101268.98;88073;1277;76267;-67
2022/04/13 02:40:12;;;;;;;15.30;7.30;;;;;;;-1.36;73.62;101270.86;88111;1277;83907;-61
2022/04/13 02:42:24;;;;;;;12.80;7.20;;;;;;;-1.36;73.75;101275.30;88098;1277;98639;-61
2022/04/13 02:44:33;;;;;;;12.60;7.10;;;;;;;-1.41;73.71;101272.10;88039;1279;88902;-66
2022/04/13 02:46:45;;;;;;;13.20;7.30;;;;;;;-1.44;73.75;101265.92;88087;1278;94234;-66
2022/04/13 02:48:54;;;;;;;14.50;7.10;;;;;;;-1.50;73.74;101259.17;88066;1277;78222;-66
2022/04/13 02:51:03;;;;;;;12.80;7.30;;;;;;;-1.53;73.62;101258.70;88102;1277;83547;-65
2022/04/13 02:53:12;;;;;;;10.80;6.70;;;;;;;-1.55;73.71;101261.41;88072;1277;96672;-67
2022/04/13 02:55:22;;;;;;;13.30;7.10;;;;;;;-1.53;74.05;101263.27;88096;1277;88173;-67
2022/04/13 02:57:34;;;;;;;16.30;7.80;;;;;;;-1.52;73.91;101263.41;88066;1277;94745;-67
2022/04/13 02:59:48;;;;;;;13.70;8.00;;;;;;;-1.54;74.13;101258.59;88106;1277;79155;-67
2022/04/13 03:02:01;;;;;;;13.20;7.80;;;;;;;-1.57;74.09;101254.14;88094;1277;82745;-67
2022/04/13 03:04:11;;;;;;;17.30;8.80;;;;;;;-1.57;74.24;101252.58;88052;1277;98209;-67
2022/04/13 03:06:20;;;;;;;17.50;7.80;;;;;;;-1.54;73.99;101254.88;88114;1277;87115;-61
2022/04/13 03:08:30;;;;;;;13.90;7.80;;;;;;;-1.54;74.20;101255.92;88110;1277;95668;-61
2022/04/13 03:10:39;;;;;;;13.40;7.30;;;;;;;-1.53;74.33;101259.23;88087;1277;79752;-61
2022/04/13 03:12:48;;;;;;;16.40;7.90;;;;;;;-1.49;74.28;101256.66;88103;1277;80973;-61
2022/04/13 03:14:57;;;;;;;15.40;8.40;;;;;;;-1.46;74.07;101256.30;88075;1278;96945;-60
2022/04/13 03:17:09;;;;;;;18.60;8.60;;;;;;;-1.43;74.34;101255.27;88039;1278;89716;-60
2022/04/13 03:19:24;;;;;;;18.30;8.00;;;;;;;-1.47;74.12;101257.27;88086;1277;95628;-60
2022/04/13 03:21:37;;;;;;;17.30;8.10;;;;;;;-1.51;74.30;101264.76;88084;1277;77633;-65
2022/04/13 03:23:49;;;;;;;19.30;9.00;;;;;;;-1.53;74.07;101267.52;88102;1277;82222;-65
2022/04/13 03:26:02;;;;;;;21.90;9.70;;;;;;;-1.56;74.00;101267.02;88071;1278;99064;-60
2022/04/13 03:28:12;;;;;;;16.90;8.70;;;;;;;-1.60;73.95;101264.58;87812;1278;330067;-61
2022/04/13 03:30:22;;;;;;;18.80;8.60;;;;;;;-1.66;73.79;101268.81;88076;1277;94664;-60
2022/04/13 03:32:38;;;;;;;16.40;8.90;;;;;;;-1.69;74.13;101267.55;88069;1277;78340;-61
2022/04/13 03:34:50;;;;;;;17.20;8.20;;;;;;;-1.74;74.04;101263.48;88087;1278;82206;-62
2022/04/13 03:37:02;;;;;;;18.90;8.90;;;;;;;-1.78;74.08;101263.52;88089;1277;97276;-61
2022/04/13 03:39:15;;;;;;;20.60;8.80;;;;;;;-1.82;73.91;101263.23;88079;1277;88106;-61
2022/04/13 03:41:23;;;;;;;20.10;9.10;;;;;;;-1.83;74.19;101261.33;88060;1278;91949;-62
2022/04/13 03:43:32;;;;;;;14.80;8.10;;;;;;;-1.82;74.13;101260.20;88055;1277;78418;-61
2022/04/13 03:45:41;;;;;;;14.50;7.60;;;;;;;-1.80;74.48;101260.48;88068;1277;83520;-67
2022/04/13 03:47:53;;;;;;;19.30;8.80;;;;;;;-1.76;74.22;101256.01;88094;1277;99126;-67
2022/04/13 03:50:03;;;;;;;14.90;7.10;;;;;;;-1.73;74.32;101255.98;88069;1277;89524;-61
2022/04/13 03:52:16;;;;;;;14.90;8.10;;;;;;;-1.67;74.54;101260.23;88089;1277;95661;-60
2022/04/13 03:54:25;;;;;;;14.40;7.20;;;;;;;-1.62;74.69;101267.50;88087;1277;77355;-64
2022/04/13 03:56:34;;;;;;;13.00;7.60;;;;;;;-1.55;74.73;101269.42;88077;1277;82341;-65
2022/04/13 03:58:42;;;;;;;12.10;7.50;;;;;;;-1.50;74.74;101269.83;88080;1277;97861;-67
2022/04/13 04:00:52;;;;;;;15.00;8.00;;;;;;;-1.51;74.35;101270.05;88082;1277;87129;-66
2022/04/13 04:03:01;;;;;;;15.10;7.90;;;;;;;-1.50;74.68;101271.39;88059;1277;95377;-67
2022/04/13 04:05:11;;;;;;;18.60;7.80;;;;;;;-1.49;74.48;101277.17;88086;1278;80041;-66
2022/04/13 04:07:23;;;;;;;15.30;8.00;;;;;;;-1.47;74.80;101279.17;88099;1278;83130;-66
2022/04/13 04:09:31;;;;;;;14.70;8.40;;;;;;;-1.46;74.70;101280.88;88051;1278;98850;-66
2022/04/13 04:11:43;;;;;;;15.90;8.10;;;;;;;-1.43;74.77;101282.29;88063;1277;89578;-65
2022/04/13 04:13:55;;;;;;;14.50;7.80;;;;;;;-1.40;74.52;101288.25;88053;1277;95643;-67
2022/04/13 04:16:08;;;;;;;16.50;8.50;;;;;;;-1.33;74.81;101290.67;88008;1278;80499;-67
2022/04/13 04:18:17;;;;;;;18.60;7.30;;;;;;;-1.32;74.51;101292.52;88087;1277;82872;-66
2022/04/13 04:20:29;;;;;;;15.50;8.20;;;;;;;-1.26;74.55;101295.89;88078;1277;100042;-62
2022/04/13 04:22:38;;;;;;;15.30;8.30;;;;;;;-1.08;74.81;101297.95;88058;1277;88241;-62
2022/04/13 04:24:52;;;;;;;16.70;8.00;;;;;;;-0.54;74.89;101294.60;88062;1277;94683;-61
2022/04/13 04:27:00;;;;;;;17.00;8.80;;;;;;;0.31;75.11;101299.40;87978;1279;83896;-60
2022/04/13 04:29:10;;;;;;;18.10;9.10;;;;;;;1.47;74.52;101298.23;88066;1277;81939;-61
2022/04/13 04:31:49;;;;;;;22.00;10.50;;;;;;;2.71;73.92;101298.06;88084;1277;99527;-61
2022/04/13 04:33:51;;;;;;;16.50;9.00;;;;;;;3.93;72.72;101293.09;88110;1278;87389;-61
2022/04/13 04:36:03;;;;;;;16.60;8.90;;;;;;;4.91;71.38;101296.39;88057;1277;93134;-61
2022/04/13 04:38:15;;;;;;;21.70;12.60;;;;;;;5.87;70.07;101295.07;88080;1277;77002;-66
2022/04/13 04:40:24;;;;;;;26.90;16.50;;;;;;;6.66;68.76;101291.90;88102;1277;81348;-61
2022/04/13 04:42:33;;;;;;;36.50;18.90;;;;;;;7.29;67.64;101284.28;88050;1278;100255;-61
2022/04/13 04:44:46;;;;;;;36.50;20.10;;;;;;;7.88;66.86;101291.40;88044;1278;88846;-66
2022/04/13 04:46:54;;;;;;;35.80;18.90;;;;;;;8.60;65.71;101295.08;88060;1278;93831;-66
2022/04/13 04:49:07;;;;;;;35.30;18.70;;;;;;;9.31;64.36;101296.02;88056;1278;77128;-67
2022/04/13 04:51:17;;;;;;;25.00;13.90;;;;;;;10.00;63.09;101296.33;88037;1278;81957;-61
2022/04/13 04:53:29;;;;;;;24.10;14.50;;;;;;;10.63;61.61;101295.43;88061;1278;97031;-61
2022/04/13 04:55:38;;;;;;;28.40;16.00;;;;;;;10.94;60.12;101291.83;88062;1278;87378;-67
2022/04/13 04:57:51;;;;;;;26.20;14.80;;;;;;;11.15;59.24;101289.20;88003;1278;96071;-66
2022/04/13 05:00:01;;;;;;;27.00;15.90;;;;;;;10.93;57.81;101291.93;88058;1278;81393;-67
2022/04/13 05:02:10;;;;;;;30.70;17.80;;;;;;;10.39;57.27;101296.63;88073;1278;82533;-66
2022/04/13 05:04:19;;;;;;;36.30;21.20;;;;;;;10.14;57.08;101297.20;88035;1278;99709;-66
2022/04/13 05:06:29;;;;;;;49.60;26.20;;;;;;;10.26;56.81;101293.45;88044;1278;87872;-61
2022/04/13 05:08:39;;;;;;;53.30;29.40;;;;;;;10.33;56.24;101295.33;88016;1278;92457;-60
2022/04/13 05:10:52;;;;;;;67.10;37.50;;;;;;;10.50;55.72;101292.32;88076;1278;78995;-66
2022/04/13 05:13:02;;;;;;;70.20;41.00;;;;;;;10.32;55.87;101298.30;88097;1277;83369;-65
2022/04/13 05:15:15;;;;;;;75.60;45.70;;;;;;;10.52;55.20;101297.21;88041;1278;97814;-66
2022/04/13 05:17:25;;;;;;;80.80;45.80;;;;;;;10.86;54.74;101295.23;88059;1278;86813;-65
2022/04/13 05:19:34;;;;;;;72.50;42.80;;;;;;;11.58;54.38;101289.00;88045;1278;95626;-66
2022/04/13 05:21:44;;;;;;;67.60;39.30;;;;;;;11.88;53.74;101293.05;88029;1278;81259;-66
2022/04/13 05:23:56;;;;;;;63.40;36.60;;;;;;;12.35;53.03;101287.80;88082;1278;81388;-64
2022/04/13 05:26:18;;;;;;;50.00;31.00;;;;;;;13.28;52.19;101286.95;88037;1278;97619;-61
2022/04/13 05:28:34;;;;;;;50.90;27.60;;;;;;;14.22;51.10;101288.67;88054;1278;88532;-62
2022/04/13 05:30:44;;;;;;;37.20;24.30;;;;;;;14.90;50.37;101286.48;88249;1263;91734;-60
2022/04/13 05:32:59;;;;;;;38.80;23.20;;;;;;;15.53;49.81;101285.75;88113;1276;78611;-60
2022/04/13 05:35:13;;;;;;;33.50;20.80;;;;;;;16.40;48.62;101282.44;88133;1277;81485;-60
2022/04/13 05:37:22;;;;;;;32.70;21.20;;;;;;;16.98;48.22;101286.05;88176;1276;95649;-59
2022/04/13 05:39:35;;;;;;;34.50;20.40;;;;;;;17.21;47.69;101290.30;88099;1277;88123;-66
2022/04/13 05:41:44;;;;;;;35.50;21.80;;;;;;;17.79;47.29;101286.61;88145;1276;95812;-68
2022/04/13 05:43:53;;;;;;;31.50;21.20;;;;;;;18.46;46.75;101288.48;88163;1276;79091;-67
2022/04/13 05:46:02;;;;;;;30.90;21.00;;;;;;;19.17;45.37;101283.25;88169;1276;81849;-68
2022/04/13 05:48:11;;;;;;;39.70;21.70;;;;;;;19.75;43.75;101282.13;88172;1276;99510;-68
2022/04/13 05:50:23;;;;;;;28.70;20.50;;;;;;;20.19;43.50;101279.41;88197;1276;88914;-60
2022/04/13 05:52:35;;;;;;;33.50;23.10;;;;;;;20.72;42.95;101282.70;88101;1276;93620;-61
2022/04/13 05:54:47;;;;;;;28.00;20.40;;;;;;;21.47;41.50;101285.44;88160;1276;78321;-68
2022/04/13 05:56:56;;;;;;;23.90;19.20;;;;;;;21.99;40.60;101283.34;88170;1276;82256;-67
2022/04/13 05:59:05;;;;;;;27.20;18.70;;;;;;;22.46;39.13;101285.09;88184;1276;97506;-62
2022/04/13 06:01:16;;;;;;;26.30;19.70;;;;;;;22.98;38.72;101289.10;88062;1277;88485;-62
2022/04/13 06:03:25;;;;;;;21.70;17.50;;;;;;;23.04;37.10;101287.65;88160;1276;95498;-61
2022/04/13 06:05:39;;;;;;;23.50;17.70;;;;;;;23.24;36.45;101293.25;88193;1275;78558;-68
2022/04/13 06:07:47;;;;;;;21.90;17.90;;;;;;;23.58;35.92;101295.24;88168;1276;80571;-68
2022/04/13 06:10:01;;;;;;;23.30;17.40;;;;;;;24.05;34.96;101290.66;88160;1276;99509;-60
2022/04/13 06:12:12;;;;;;;24.70;18.00;;;;;;;24.31;34.54;101292.23;88166;1276;88122;-61
2022/04/13 06:14:21;;;;;;;23.10;17.60;;;;;;;24.40;33.80;101286.98;88174;1276;95703;-60
2022/04/13 06:16:30;;;;;;;23.60;18.60;;;;;;;24.35;32.25;101292.11;88145;1276;79777;-61
2022/04/13 06:18:41;;;;;;;20.90;17.40;;;;;;;24.57;32.06;101289.02;88191;1273;80254;-60
2022/04/13 06:20:51;;;;;;;25.90;19.00;;;;;;;25.09;32.24;101295.05;88101;1276;97348;-60
2022/04/13 06:23:03;;;;;;;21.70;18.20;;;;;;;25.69;31.55;101293.70;88084;1276;88179;-67
2022/04/13 06:25:14;;;;;;;21.90;18.00;;;;;;;26.10;31.12;101299.68;88193;1276;93279;-61
2022/04/13 06:27:23;;;;;;;21.60;16.50;;;;;;;26.39;30.37;101303.77;88204;1276;77705;-61
2022/04/13 06:29:31;;;;;;;21.20;17.40;;;;;;;26.54;29.98;101305.70;88190;1276;82044;-61
2022/04/13 06:31:40;;;;;;;20.70;16.10;;;;;;;26.91;28.88;101307.86;88149;1276;99337;-61
2022/04/13 06:33:50;;;;;;;16.70;14.00;;;;;;;27.08;28.60;101311.15;88171;1276;89593;-62
2022/04/13 06:36:00;;;;;;;17.20;14.20;;;;;;;27.63;28.34;101309.15;88052;1276;95959;-60
2022/04/13 06:38:08;;;;;;;21.30;15.10;;;;;;;28.11;27.73;101307.60;88130;1276;80536;-61
2022/04/13 06:40:18;;;;;;;17.90;14.10;;;;;;;28.41;27.38;101306.13;88109;1276;83198;-68
2022/04/13 06:42:32;;;;;;;16.00;13.30;;;;;;;28.50;26.84;101309.70;88133;1276;99324;-68
2022/04/13 06:44:41;;;;;;;17.70;12.40;;;;;;;28.72;26.07;101309.04;88172;1276;88882;-67
2022/04/13 06:46:50;;;;;;;17.60;12.90;;;;;;;28.41;24.95;101313.42;88140;1276;96343;-67
2022/04/13 06:48:59;;;;;;;16.00;12.10;;;;;;;29.01;24.53;101316.38;88177;1276;78739;-67
2022/04/13 06:51:09;;;;;;;17.20;13.10;;;;;;;29.18;24.47;101313.52;88164;1276;82759;-60
2022/04/13 06:53:18;;;;;;;16.10;14.40;;;;;;;29.49;23.33;101319.50;88105;1276;98466;-60
2022/04/13 06:55:28;;;;;;;15.80;14.10;;;;;;;29.52;23.72;101325.04;88183;1276;89775;-61
2022/04/13 06:57:37;;;;;;;16.80;12.90;;;;;;;29.76;23.09;101321.80;88081;1278;93822;-61
2022/04/13 06:59:49;;;;;;;15.60;14.00;;;;;;;30.01;22.80;101327.02;88084;1278;79338;-68
2022/04/13 07:01:58;;;;;;;19.10;14.90;;;;;;;29.97;22.28;101325.95;88104;1277;83194;-68
2022/04/13 07:04:07;;;;;;;13.90;12.40;;;;;;;30.06;21.32;101324.16;88080;1276;97770;-66
2022/04/13 07:06:17;;;;;;;14.60;11.70;;;;;;;29.99;21.08;101327.64;88121;1277;87970;-66
2022/04/13 07:08:25;;;;;;;11.40;10.20;;;;;;;29.67;20.94;101328.42;88101;1276;92841;-68
2022/04/13 07:10:35;;;;;;;13.40;10.20;;;;;;;29.35;21.17;101326.75;88107;1278;78445;-69
2022/04/13 07:12:47;;;;;;;11.20;9.30;;;;;;;29.65;20.98;101324.41;88152;1276;83457;-68
2022/04/13 07:15:00;;;;;;;11.70;8.70;;;;;;;29.53;19.83;101324.27;88173;1276;97417;-62
2022/04/13 07:17:09;;;;;;;11.10;9.30;;;;;;;29.93;20.47;101325.04;88100;1279;89172;-62
2022/04/13 07:19:21;;;;;;;11.60;8.40;;;;;;;30.25;20.33;101327.18;88116;1278;95496;-62
2022/04/13 07:21:31;;;;;;;10.80;9.20;;;;;;;30.25;20.65;101329.64;88110;1279;79457;-62
2022/04/13 07:23:42;;;;;;;11.90;9.00;;;;;;;30.21;20.70;101332.08;88127;1278;80678;-62
2022/04/13 07:25:51;;;;;;;11.40;9.10;;;;;;;30.40;20.53;101333.58;88121;1278;99171;-61
2022/04/13 07:31:01;;;;;;;10.90;7.90;;;;;;;30.90;19.79;101339.94;88332;1275;93996;-69
2022/04/13 07:33:11;;;;;;;10.80;8.20;;;;;;;30.93;19.74;101343.53;88208;1273;80469;-67
2022/04/13 07:35:21;;;;;;;8.70;7.70;;;;;;;30.57;18.19;101345.75;88241;1273;81276;-67
2022/04/13 07:37:35;;;;;;;10.00;8.10;;;;;;;30.41;19.16;101344.71;88219;1273;99147;-68
2022/04/13 07:39:44;;;;;;;11.10;8.70;;;;;;;29.77;18.97;101345.64;88238;1273;87829;-61
2022/04/13 07:41:52;;;;;;;12.00;9.10;;;;;;;29.60;19.15;101347.52;88190;1273;95396;-61
2022/04/13 07:44:02;;;;;;;11.00;8.80;;;;;;;29.55;19.29;101340.73;88203;1273;78382;-61
2022/04/13 07:46:14;;;;;;;10.20;7.50;;;;;;;29.62;19.49;101337.09;88228;1273;81913;-61
2022/04/13 07:48:24;;;;;;;9.50;7.30;;;;;;;29.65;19.69;101341.96;88210;1273;99234;-59
2022/04/13 07:50:33;;;;;;;8.60;6.40;;;;;;;29.72;19.37;101340.34;88251;1273;88407;-66
2022/04/13 07:52:45;;;;;;;8.50;6.50;;;;;;;29.34;18.75;101340.33;88211;1273;94071;-60
2022/04/13 07:54:54;;;;;;;6.70;5.80;;;;;;;28.52;19.10;101341.56;88188;1273;80052;-67
2022/04/13 07:57:04;;;;;;;6.50;4.70;;;;;;;28.97;18.93;101338.59;88236;1273;82592;-68
2022/04/13 07:59:13;;;;;;;8.70;5.50;;;;;;;29.18;18.26;101340.29;88222;1273;97452;-67
2022/04/13 08:01:22;;;;;;;8.60;5.30;;;;;;;29.32;18.10;101344.10;88209;1273;88770;-68
2022/04/13 08:03:31;;;;;;;7.30;6.20;;;;;;;29.25;17.77;101341.86;88206;1273;95302;-68
2022/04/13 08:05:43;;;;;;;8.00;6.20;;;;;;;29.00;17.11;101342.92;88213;1273;81095;-61
2022/04/13 08:07:51;;;;;;;7.70;5.20;;;;;;;28.53;17.89;101349.67;88232;1273;80999;-61
2022/04/13 08:10:00;;;;;;;5.90;4.40;;;;;;;27.98;17.68;101348.30;88198;1273;98887;-65
2022/04/13 08:12:15;;;;;;;7.00;5.60;;;;;;;27.62;17.92;101345.07;88223;1273;89061;-66
2022/04/13 08:14:27;;;;;;;7.00;6.30;;;;;;;27.99;17.72;101346.08;88265;1273;95979;-72
2022/04/13 08:16:36;;;;;;;8.80;5.70;;;;;;;28.10;18.64;101345.23;88206;1273;81248;-73
2022/04/13 08:18:45;;;;;;;8.20;5.80;;;;;;;28.32;18.63;101344.49;88206;1273;83786;-70
2022/04/13 08:20:54;;;;;;;6.50;5.70;;;;;;;28.39;17.12;101338.52;88203;1273;98281;-67
2022/04/13 08:23:03;;;;;;;11.30;7.20;;;;;;;28.52;17.50;101339.05;88239;1273;86487;-65
2022/04/13 08:25:14;;;;;;;7.90;4.70;;;;;;;28.48;17.14;101337.75;88169;1276;95498;-66
2022/04/13 08:27:23;;;;;;;9.80;5.40;;;;;;;28.25;17.13;101336.11;88238;1273;77983;-64
2022/04/13 08:29:35;;;;;;;8.40;6.10;;;;;;;28.16;17.38;101337.08;88262;1273;83821;-74
2022/04/13 08:31:47;;;;;;;6.60;5.70;;;;;;;27.19;16.66;101339.39;88260;1273;99170;-74
2022/04/13 08:33:59;;;;;;;9.50;6.70;;;;;;;27.32;17.59;101337.73;88283;1273;88513;-65
2022/04/13 08:36:09;;;;;;;5.70;4.70;;;;;;;27.80;17.50;101337.66;88300;1273;95596;-67
2022/04/13 08:38:21;;;;;;;5.00;4.40;;;;;;;27.88;17.95;101334.65;88241;1273;79258;-66
2022/04/13 08:40:37;;;;;;;6.90;5.20;;;;;;;28.11;18.00;101337.00;88304;1273;82960;-66
2022/04/13 08:42:57;;;;;;;6.90;4.80;;;;;;;27.84;16.67;101337.60;88317;1273;97996;-65
2022/04/13 08:45:13;;;;;;;6.40;5.00;;;;;;;27.10;17.15;101338.95;88245;1273;87842;-65
2022/04/13 08:47:28;;;;;;;8.20;4.60;;;;;;;27.47;17.57;101335.87;88291;1273;94195;-65
2022/04/13 08:49:40;;;;;;;7.00;4.80;;;;;;;27.76;18.15;101332.85;88282;1273;78766;-75
2022/04/13 08:52:05;;;;;;;6.50;4.50;;;;;;;27.51;17.38;101339.20;88320;1273;80821;-71
2022/04/13 08:54:23;;;;;;;7.50;4.60;;;;;;;26.81;16.61;101336.27;88190;1274;99673;-71
2022/04/13 08:56:44;;;;;;;6.70;4.90;;;;;;;26.69;17.15;101333.34;88171;1274;90687;-71
2022/04/13 08:59:05;;;;;;;5.40;4.60;;;;;;;26.06;16.54;101340.34;88306;1273;95803;-71
2022/04/13 09:01:21;;;;;;;5.50;4.40;;;;;;;26.01;17.47;101336.19;88303;1273;77142;-72
2022/04/13 09:03:43;;;;;;;6.40;5.00;;;;;;;26.30;18.14;101331.16;88309;1273;81969;-68
2022/04/13 09:05:58;;;;;;;5.30;4.40;;;;;;;26.65;18.11;101329.63;88295;1273;99148;-71
2022/04/13 09:08:13;;;;;;;5.60;4.30;;;;;;;26.68;17.67;101327.75;88267;1273;89128;-70
2022/04/13 09:10:26;;;;;;;6.80;5.50;;;;;;;26.50;17.44;101338.22;88290;1273;95908;-71
2022/04/13 09:12:37;;;;;;;7.60;5.80;;;;;;;26.23;17.38;101334.45;88163;1274;78531;-71
2022/04/13 09:14:47;;;;;;;6.40;5.00;;;;;;;26.24;17.32;101328.70;88249;1273;81405;-71
2022/04/13 09:16:58;;;;;;;7.40;4.80;;;;;;;25.32;17.45;101333.56;88301;1273;98186;-71
2022/04/13 09:19:09;;;;;;;5.50;5.00;;;;;;;24.63;17.84;101327.95;88328;1273;89092;-68
2022/04/13 09:21:20;;;;;;;7.20;5.40;;;;;;;24.64;18.22;101326.08;88275;1273;95241;-71
2022/04/13 09:23:31;;;;;;;11.20;7.10;;;;;;;24.43;18.48;101326.73;88285;1273;78940;-70
2022/04/13 09:25:44;;;;;;;6.70;5.70;;;;;;;23.74;18.42;101326.10;88268;1273;81054;-71
2022/04/13 09:27:58;;;;;;;10.90;6.40;;;;;;;22.88;17.88;101322.58;88274;1273;97352;-71
2022/04/13 09:30:09;;;;;;;7.10;4.80;;;;;;;22.10;18.92;101321.95;88297;1273;88040;-71
2022/04/13 09:32:23;;;;;;;8.40;5.20;;;;;;;21.45;19.45;101320.43;88303;1273;92206;-71
2022/04/13 09:34:33;;;;;;;6.80;5.10;;;;;;;21.15;19.71;101322.52;88322;1273;80140;-72
2022/04/13 09:36:46;;;;;;;6.80;5.00;;;;;;;21.11;20.44;101320.14;88283;1273;79801;-71
2022/04/13 09:38:56;;;;;;;7.70;5.70;;;;;;;21.09;20.81;101321.33;88300;1273;95842;-71
2022/04/13 09:41:14;;;;;;;9.80;5.40;;;;;;;20.58;20.54;101320.36;88266;1273;87851;-71
2022/04/13 09:43:24;;;;;;;10.10;5.50;;;;;;;19.85;20.88;101316.86;88258;1273;94294;-71
2022/04/13 09:45:42;;;;;;;6.40;4.90;;;;;;;19.62;21.34;101319.56;88256;1272;78586;-72
2022/04/13 09:47:51;;;;;;;6.50;4.80;;;;;;;19.56;21.26;101316.95;88277;1273;82382;-73
2022/04/13 09:50:03;;;;;;;7.00;5.30;;;;;;;19.27;21.66;101312.05;88301;1274;97471;-72
2022/04/13 09:52:15;;;;;;;8.20;4.80;;;;;;;19.11;22.38;101301.73;88258;1273;88724;-72
2022/04/13 09:54:28;;;;;;;7.20;5.20;;;;;;;19.33;22.54;101297.19;88238;1273;95882;-71
2022/04/13 09:56:47;;;;;;;6.70;5.00;;;;;;;19.04;22.17;101293.60;88273;1273;79320;-70
2022/04/13 09:58:58;;;;;;;6.90;5.20;;;;;;;18.77;22.35;101295.67;88299;1273;81800;-71
2022/04/13 10:01:09;;;;;;;8.30;5.40;;;;;;;18.77;22.72;101300.55;88225;1273;97082;-69
2022/04/13 10:03:26;;;;;;;6.90;4.80;;;;;;;18.40;22.59;101298.26;88282;1273;87951;-71
2022/04/13 10:05:42;;;;;;;7.90;4.70;;;;;;;18.34;22.58;101290.92;88291;1273;95432;-70